createdAt,value
2017-07-11T00:00:08.646Z,993.89
2017-07-11T00:01:08.688Z,993.89
2017-07-11T00:02:08.727Z,993.88
2017-07-11T00:03:08.768Z,993.87
2017-07-11T00:04:08.808Z,993.84
2017-07-11T00:05:08.848Z,993.82
2017-07-11T00:06:08.888Z,993.82
2017-07-11T00:07:08.926Z,993.85
2017-07-11T00:08:08.967Z,993.8
2017-07-11T00:09:09.008Z,993.77
2017-07-11T00:10:09.049Z,993.76
2017-07-11T00:11:09.089Z,993.8
2017-07-11T00:12:09.130Z,993.78
2017-07-11T00:13:09.170Z,993.87
2017-07-11T00:14:09.210Z,993.89
2017-07-11T00:15:09.250Z,993.92
2017-07-11T00:16:09.290Z,993.93
2017-07-11T00:17:09.331Z,993.89
2017-07-11T00:18:09.368Z,993.87
2017-07-11T00:19:09.411Z,993.87
2017-07-11T00:20:09.451Z,993.84
2017-07-11T00:21:09.489Z,993.9
2017-07-11T00:22:09.529Z,993.87
2017-07-11T00:23:09.569Z,993.88
2017-07-11T00:24:09.612Z,993.87
2017-07-11T00:25:09.653Z,993.82
2017-07-11T00:26:09.692Z,993.84
2017-07-11T00:27:09.735Z,993.85
2017-07-11T00:28:09.770Z,993.88
2017-07-11T00:29:09.814Z,993.84
2017-07-11T00:30:09.853Z,993.83
2017-07-11T00:31:09.892Z,993.83
2017-07-11T00:32:09.933Z,993.85
2017-07-11T00:33:09.972Z,993.86
2017-07-11T00:34:10.012Z,993.88
2017-07-11T00:35:10.054Z,993.92
2017-07-11T00:36:10.094Z,993.95
2017-07-11T00:37:10.135Z,994.02
2017-07-11T00:38:10.173Z,994.06
2017-07-11T00:39:10.213Z,994.05
2017-07-11T00:40:10.256Z,994.02
2017-07-11T00:41:10.292Z,994.04
2017-07-11T00:42:10.334Z,994.06
2017-07-11T00:43:10.376Z,994.04
2017-07-11T00:44:10.414Z,994.08
2017-07-11T00:45:10.456Z,994.09
2017-07-11T00:46:10.495Z,994.11
2017-07-11T00:47:10.535Z,994.09
2017-07-11T00:48:10.577Z,994.09
2017-07-11T00:49:10.615Z,994.12
2017-07-11T00:50:10.657Z,994.13
2017-07-11T00:51:10.697Z,994.14
2017-07-11T00:52:10.737Z,994.13
2017-07-11T00:53:10.780Z,994.12
2017-07-11T00:54:10.820Z,994.1
2017-07-11T00:55:10.856Z,994.15
2017-07-11T00:56:10.897Z,994.18
2017-07-11T00:57:10.940Z,994.13
2017-07-11T00:58:11.032Z,994.17
2017-07-11T00:59:11.019Z,994.17
2017-07-11T01:00:11.060Z,994.14
2017-07-11T01:01:11.101Z,994.15
2017-07-11T01:02:11.137Z,994.14
2017-07-11T01:03:11.181Z,994.15
2017-07-11T01:04:11.222Z,994.13
2017-07-11T01:05:11.263Z,994.13
2017-07-11T01:06:11.300Z,994.14
2017-07-11T01:07:11.342Z,994.15
2017-07-11T01:08:11.382Z,994.18
2017-07-11T01:09:11.422Z,994.19
2017-07-11T01:10:11.463Z,994.19
2017-07-11T01:11:11.502Z,994.14
2017-07-11T01:12:11.542Z,994.18
2017-07-11T01:13:11.583Z,994.16
2017-07-11T01:14:11.623Z,994.15
2017-07-11T01:15:11.714Z,994.13
2017-07-11T01:16:11.703Z,994.11
2017-07-11T01:17:11.744Z,994.09
2017-07-11T01:18:11.784Z,994.11
2017-07-11T01:19:11.824Z,994.1
2017-07-11T01:20:11.863Z,994.1
2017-07-11T01:21:11.903Z,994.13
2017-07-11T01:22:11.946Z,994.11
2017-07-11T01:23:11.983Z,994.13
2017-07-11T01:24:12.022Z,994.13
2017-07-11T01:25:12.065Z,994.11
2017-07-11T01:26:12.105Z,994.1
2017-07-11T01:27:12.145Z,994.1
2017-07-11T01:28:12.185Z,994.12
2017-07-11T01:29:12.225Z,994.12
2017-07-11T01:30:12.265Z,994.13
2017-07-11T01:31:12.304Z,994.1
2017-07-11T01:32:12.347Z,994.1
2017-07-11T01:33:12.388Z,994.09
2017-07-11T01:34:12.427Z,994.06
2017-07-11T01:35:12.466Z,994.04
2017-07-11T01:36:12.504Z,994.08
2017-07-11T01:37:12.546Z,994.11
2017-07-11T01:38:12.585Z,994.09
2017-07-11T01:39:12.627Z,994.13
2017-07-11T01:40:12.667Z,994.13
2017-07-11T01:41:12.707Z,994.14
2017-07-11T01:42:12.747Z,994.1
2017-07-11T01:43:12.787Z,994.09
2017-07-11T01:44:12.825Z,994.13
2017-07-11T01:45:12.866Z,994.06
2017-07-11T01:46:12.908Z,994.03
2017-07-11T01:47:12.948Z,994.07
2017-07-11T01:48:12.986Z,994.11
2017-07-11T01:49:13.029Z,994.06
2017-07-11T01:50:13.066Z,994.06
2017-07-11T01:51:13.108Z,994.08
2017-07-11T01:52:13.147Z,994.11
2017-07-11T01:53:13.189Z,994.1
2017-07-11T01:54:13.229Z,994.11
2017-07-11T01:55:13.268Z,994.11
2017-07-11T01:56:13.309Z,994.08
2017-07-11T01:57:13.349Z,994.06
2017-07-11T01:58:13.389Z,994.06
2017-07-11T01:59:13.429Z,994.05
2017-07-11T02:00:13.471Z,994.1
2017-07-11T02:01:13.509Z,994.08
2017-07-11T02:02:13.550Z,994.12
2017-07-11T02:03:13.588Z,994.15
2017-07-11T02:04:13.630Z,994.17
2017-07-11T02:05:13.671Z,994.17
2017-07-11T02:06:13.710Z,994.18
2017-07-11T02:07:13.748Z,994.17
2017-07-11T02:08:13.790Z,994.14
2017-07-11T02:09:13.831Z,994.15
2017-07-11T02:10:13.869Z,994.12
2017-07-11T02:11:13.911Z,994.1
2017-07-11T02:12:13.949Z,994.11
2017-07-11T02:13:13.990Z,994.14
2017-07-11T02:14:14.029Z,994.16
2017-07-11T02:15:14.069Z,994.15
2017-07-11T02:16:14.113Z,994.15
2017-07-11T02:17:14.149Z,994.17
2017-07-11T02:18:14.193Z,994.17
2017-07-11T02:19:14.230Z,994.2
2017-07-11T02:20:14.269Z,994.18
2017-07-11T02:21:14.311Z,994.17
2017-07-11T02:22:14.354Z,994.15
2017-07-11T02:23:14.391Z,994.21
2017-07-11T02:24:14.430Z,994.19
2017-07-11T02:25:14.473Z,994.16
2017-07-11T02:26:14.512Z,994.17
2017-07-11T02:27:14.551Z,994.19
2017-07-11T02:28:14.591Z,994.21
2017-07-11T02:29:14.634Z,994.2
2017-07-11T02:30:14.671Z,994.26
2017-07-11T02:31:14.713Z,994.22
2017-07-11T02:32:14.751Z,994.2
2017-07-11T02:33:14.794Z,994.21
2017-07-11T02:34:14.832Z,994.19
2017-07-11T02:35:14.873Z,994.18
2017-07-11T02:36:14.915Z,994.22
2017-07-11T02:37:14.954Z,994.21
2017-07-11T02:38:14.990Z,994.25
2017-07-11T02:39:15.033Z,994.22
2017-07-11T02:40:15.071Z,994.22
2017-07-11T02:41:15.112Z,994.28
2017-07-11T02:42:15.154Z,994.26
2017-07-11T02:43:15.194Z,994.32
2017-07-11T02:44:15.233Z,994.29
2017-07-11T02:45:15.274Z,994.32
2017-07-11T02:46:15.317Z,994.35
2017-07-11T02:47:15.353Z,994.28
2017-07-11T02:48:15.394Z,994.33
2017-07-11T02:49:15.433Z,994.29
2017-07-11T02:50:15.474Z,994.3
2017-07-11T02:51:15.515Z,994.36
2017-07-11T02:52:15.554Z,994.34
2017-07-11T02:53:15.594Z,994.34
2017-07-11T02:54:15.635Z,994.35
2017-07-11T02:55:15.673Z,994.34
2017-07-11T02:56:15.713Z,994.33
2017-07-11T02:57:15.754Z,994.34
2017-07-11T02:58:15.793Z,994.37
2017-07-11T02:59:15.833Z,994.35
2017-07-11T03:00:15.876Z,994.37
2017-07-11T03:01:15.914Z,994.36
2017-07-11T03:02:15.957Z,994.34
2017-07-11T03:03:15.996Z,994.33
2017-07-11T03:04:16.050Z,994.39
2017-07-11T03:05:16.081Z,994.37
2017-07-11T03:06:16.117Z,994.36
2017-07-11T03:07:16.155Z,994.41
2017-07-11T03:08:16.195Z,994.41
2017-07-11T03:09:16.238Z,994.42
2017-07-11T03:10:16.278Z,994.41
2017-07-11T03:11:16.317Z,994.42
2017-07-11T03:12:16.358Z,994.44
2017-07-11T03:13:16.403Z,994.44
2017-07-11T03:14:16.439Z,994.42
2017-07-11T03:15:16.482Z,994.46
2017-07-11T03:16:16.521Z,994.48
2017-07-11T03:17:16.558Z,994.48
2017-07-11T03:18:16.600Z,994.52
2017-07-11T03:19:16.638Z,994.5
2017-07-11T03:20:16.680Z,994.49
2017-07-11T03:21:16.720Z,994.5
2017-07-11T03:22:16.758Z,994.51
2017-07-11T03:23:16.799Z,994.51
2017-07-11T03:24:16.843Z,994.52
2017-07-11T03:25:16.881Z,994.5
2017-07-11T03:26:16.920Z,994.52
2017-07-11T03:27:16.960Z,994.51
2017-07-11T03:28:17.004Z,994.55
2017-07-11T03:29:17.040Z,994.52
2017-07-11T03:30:17.086Z,994.51
2017-07-11T03:31:17.124Z,994.53
2017-07-11T03:32:17.164Z,994.54
2017-07-11T03:33:17.201Z,994.54
2017-07-11T03:34:17.242Z,994.55
2017-07-11T03:35:17.284Z,994.53
2017-07-11T03:36:17.323Z,994.57
2017-07-11T03:37:17.362Z,994.57
2017-07-11T03:38:17.406Z,994.61
2017-07-11T03:39:17.444Z,994.6
2017-07-11T03:40:17.485Z,994.64
2017-07-11T03:41:17.523Z,994.66
2017-07-11T03:42:17.564Z,994.67
2017-07-11T03:43:17.607Z,994.67
2017-07-11T03:44:17.644Z,994.64
2017-07-11T03:45:17.688Z,994.65
2017-07-11T03:46:17.728Z,994.65
2017-07-11T03:47:17.766Z,994.66
2017-07-11T03:48:17.808Z,994.72
2017-07-11T03:49:17.847Z,994.7
2017-07-11T03:50:17.889Z,994.69
2017-07-11T03:51:17.926Z,994.76
2017-07-11T03:52:17.969Z,994.75
2017-07-11T03:53:18.008Z,994.79
2017-07-11T03:54:18.050Z,994.76
2017-07-11T03:55:18.088Z,994.76
2017-07-11T03:56:18.130Z,994.79
2017-07-11T03:57:18.169Z,994.8
2017-07-11T03:58:18.209Z,994.81
2017-07-11T03:59:18.252Z,994.83
2017-07-11T04:00:18.291Z,994.83
2017-07-11T04:01:18.330Z,994.8
2017-07-11T04:02:18.374Z,994.79
2017-07-11T04:03:18.413Z,994.82
2017-07-11T04:04:18.452Z,994.85
2017-07-11T04:05:18.494Z,994.87
2017-07-11T04:06:18.535Z,994.84
2017-07-11T04:07:18.575Z,994.87
2017-07-11T04:08:18.613Z,994.85
2017-07-11T04:09:18.657Z,994.86
2017-07-11T04:10:18.696Z,994.86
2017-07-11T04:11:18.737Z,994.87
2017-07-11T04:12:18.775Z,994.85
2017-07-11T04:13:18.816Z,994.82
2017-07-11T04:14:18.859Z,994.86
2017-07-11T04:15:18.903Z,994.84
2017-07-11T04:16:18.938Z,994.85
2017-07-11T04:17:18.978Z,994.87
2017-07-11T04:18:19.021Z,994.89
2017-07-11T04:19:19.069Z,994.86
2017-07-11T04:20:19.100Z,994.88
2017-07-11T04:21:19.138Z,994.9
2017-07-11T04:22:19.179Z,994.92
2017-07-11T04:23:19.220Z,994.92
2017-07-11T04:24:19.260Z,994.91
2017-07-11T04:25:19.303Z,995
2017-07-11T04:26:19.340Z,994.97
2017-07-11T04:27:19.383Z,994.99
2017-07-11T04:28:19.422Z,994.98
2017-07-11T04:29:19.461Z,994.96
2017-07-11T04:30:19.504Z,995.04
2017-07-11T04:31:19.544Z,995.03
2017-07-11T04:32:19.585Z,995.05
2017-07-11T04:33:19.624Z,995.06
2017-07-11T04:34:19.664Z,995.06
2017-07-11T04:35:19.704Z,995.09
2017-07-11T04:36:19.747Z,995.09
2017-07-11T04:37:19.786Z,995.1
2017-07-11T04:38:19.830Z,995.11
2017-07-11T04:39:19.867Z,995.12
2017-07-11T04:40:19.908Z,995.13
2017-07-11T04:41:19.946Z,995.14
2017-07-11T04:42:19.989Z,995.12
2017-07-11T04:43:20.032Z,995.11
2017-07-11T04:44:20.068Z,995.08
2017-07-11T04:45:20.110Z,995.08
2017-07-11T04:46:20.149Z,995.1
2017-07-11T04:47:20.191Z,995.09
2017-07-11T04:48:20.232Z,995.11
2017-07-11T04:49:20.272Z,995.13
2017-07-11T04:50:20.310Z,995.13
2017-07-11T04:51:20.354Z,995.1
2017-07-11T04:52:20.392Z,995.11
2017-07-11T04:53:20.434Z,995.12
2017-07-11T04:54:20.473Z,995.1
2017-07-11T04:55:20.515Z,995.11
2017-07-11T04:56:20.557Z,995.12
2017-07-11T04:57:20.595Z,995.13
2017-07-11T04:58:20.635Z,995.08
2017-07-11T04:59:20.676Z,995.12
2017-07-11T05:00:20.718Z,995.12
2017-07-11T05:01:20.757Z,995.12
2017-07-11T05:02:20.799Z,995.12
2017-07-11T05:03:20.838Z,995.12
2017-07-11T05:04:20.878Z,995.12
2017-07-11T05:05:20.919Z,995.11
2017-07-11T05:06:20.963Z,995.1
2017-07-11T05:07:21.000Z,995.11
2017-07-11T05:08:21.040Z,995.11
2017-07-11T05:09:21.083Z,995.14
2017-07-11T05:10:21.122Z,995.13
2017-07-11T05:11:21.164Z,995.11
2017-07-11T05:12:21.207Z,995.14
2017-07-11T05:13:21.243Z,995.12
2017-07-11T05:14:21.283Z,995.12
2017-07-11T05:15:21.325Z,995.15
2017-07-11T05:16:21.364Z,995.19
2017-07-11T05:17:21.408Z,995.14
2017-07-11T05:18:21.447Z,995.2
2017-07-11T05:19:21.486Z,995.22
2017-07-11T05:20:21.529Z,995.2
2017-07-11T05:21:21.568Z,995.23
2017-07-11T05:22:21.609Z,995.23
2017-07-11T05:23:21.649Z,995.25
2017-07-11T05:24:21.689Z,995.23
2017-07-11T05:25:21.729Z,995.25
2017-07-11T05:26:21.769Z,995.26
2017-07-11T05:27:21.812Z,995.27
2017-07-11T05:28:21.854Z,995.26
2017-07-11T05:29:21.892Z,995.31
2017-07-11T05:30:21.931Z,995.29
2017-07-11T05:31:21.973Z,995.31
2017-07-11T05:32:22.014Z,995.33
2017-07-11T05:33:22.058Z,995.33
2017-07-11T05:34:22.093Z,995.34
2017-07-11T05:35:22.136Z,995.33
2017-07-11T05:36:22.181Z,995.38
2017-07-11T05:37:22.216Z,995.38
2017-07-11T05:38:22.257Z,995.36
2017-07-11T05:39:22.308Z,995.34
2017-07-11T05:40:22.337Z,995.35
2017-07-11T05:41:22.380Z,995.37
2017-07-11T05:42:22.418Z,995.38
2017-07-11T05:43:22.461Z,995.36
2017-07-11T05:44:22.499Z,995.4
2017-07-11T05:45:22.541Z,995.39
2017-07-11T05:46:22.580Z,995.39
2017-07-11T05:47:22.640Z,995.43
2017-07-11T05:48:22.665Z,995.42
2017-07-11T05:49:22.702Z,995.46
2017-07-11T05:50:22.743Z,995.46
2017-07-11T05:51:22.782Z,995.49
2017-07-11T05:52:22.824Z,995.49
2017-07-11T05:53:22.868Z,995.5
2017-07-11T05:54:22.905Z,995.5
2017-07-11T05:55:22.944Z,995.48
2017-07-11T05:56:22.986Z,995.5
2017-07-11T05:57:23.028Z,995.5
2017-07-11T05:58:23.140Z,995.5
2017-07-11T05:59:23.106Z,995.52
2017-07-11T06:00:23.148Z,995.52
2017-07-11T06:01:23.188Z,995.56
2017-07-11T06:02:23.230Z,995.56
2017-07-11T06:03:23.269Z,995.57
2017-07-11T06:04:23.312Z,995.54
2017-07-11T06:05:23.352Z,995.59
2017-07-11T06:06:23.394Z,995.59
2017-07-11T06:07:23.433Z,995.59
2017-07-11T06:08:23.472Z,995.64
2017-07-11T06:09:23.513Z,995.63
2017-07-11T06:10:23.553Z,995.63
2017-07-11T06:11:23.594Z,995.63
2017-07-11T06:12:23.636Z,995.61
2017-07-11T06:13:23.675Z,995.64
2017-07-11T06:14:23.716Z,995.64
2017-07-11T06:15:23.773Z,995.62
2017-07-11T06:16:23.799Z,995.61
2017-07-11T06:17:23.838Z,995.64
2017-07-11T06:18:23.877Z,995.65
2017-07-11T06:19:23.919Z,995.64
2017-07-11T06:20:23.957Z,995.65
2017-07-11T06:21:23.997Z,995.64
2017-07-11T06:22:24.038Z,995.65
2017-07-11T06:23:24.083Z,995.64
2017-07-11T06:24:24.122Z,995.62
2017-07-11T06:25:24.161Z,995.62
2017-07-11T06:26:24.200Z,995.6
2017-07-11T06:27:24.244Z,995.61
2017-07-11T06:28:24.280Z,995.61
2017-07-11T06:29:24.323Z,995.58
2017-07-11T06:30:24.365Z,995.6
2017-07-11T06:31:24.404Z,995.61
2017-07-11T06:32:24.445Z,995.62
2017-07-11T06:33:24.482Z,995.61
2017-07-11T06:34:24.526Z,995.63
2017-07-11T06:35:24.566Z,995.64
2017-07-11T06:36:24.606Z,995.61
2017-07-11T06:37:24.646Z,995.58
2017-07-11T06:38:24.693Z,995.59
2017-07-11T06:39:24.726Z,995.62
2017-07-11T06:40:24.769Z,995.58
2017-07-11T06:41:24.810Z,995.6
2017-07-11T06:42:24.846Z,995.6
2017-07-11T06:43:24.890Z,995.59
2017-07-11T06:44:24.929Z,995.62
2017-07-11T06:45:24.972Z,995.6
2017-07-11T06:46:25.011Z,995.53
2017-07-11T06:47:25.056Z,995.57
2017-07-11T06:48:25.091Z,995.58
2017-07-11T06:49:25.134Z,995.57
2017-07-11T06:50:25.172Z,995.56
2017-07-11T06:51:25.214Z,995.58
2017-07-11T06:52:25.254Z,995.63
2017-07-11T06:53:25.296Z,995.61
2017-07-11T06:54:25.335Z,995.64
2017-07-11T06:55:25.380Z,995.65
2017-07-11T06:56:25.421Z,995.66
2017-07-11T06:57:25.468Z,995.69
2017-07-11T06:58:25.502Z,995.72
2017-07-11T06:59:25.542Z,995.7
2017-07-11T07:00:25.584Z,995.69
2017-07-11T07:01:25.625Z,995.68
2017-07-11T07:02:25.667Z,995.67
2017-07-11T07:03:25.707Z,995.71
2017-07-11T07:04:25.749Z,995.69
2017-07-11T07:05:25.794Z,995.69
2017-07-11T07:06:25.831Z,995.69
2017-07-11T07:07:25.871Z,995.69
2017-07-11T07:08:25.917Z,995.71
2017-07-11T07:09:25.956Z,995.71
2017-07-11T07:10:25.996Z,995.7
2017-07-11T07:11:26.049Z,995.75
2017-07-11T07:12:26.083Z,995.76
2017-07-11T07:13:26.124Z,995.76
2017-07-11T07:14:26.164Z,995.74
2017-07-11T07:15:26.205Z,995.77
2017-07-11T07:16:26.248Z,995.75
2017-07-11T07:17:26.288Z,995.73
2017-07-11T07:18:26.327Z,995.75
2017-07-11T07:19:26.375Z,995.74
2017-07-11T07:20:26.410Z,995.71
2017-07-11T07:21:26.455Z,995.71
2017-07-11T07:22:26.495Z,995.69
2017-07-11T07:23:26.538Z,995.76
2017-07-11T07:24:26.577Z,995.71
2017-07-11T07:25:26.620Z,995.72
2017-07-11T07:26:26.662Z,995.72
2017-07-11T07:27:26.702Z,995.72
2017-07-11T07:28:26.747Z,995.72
2017-07-11T07:29:26.788Z,995.71
2017-07-11T07:30:26.830Z,995.74
2017-07-11T07:31:26.871Z,995.75
2017-07-11T07:32:26.944Z,995.74
2017-07-11T07:33:26.953Z,995.79
2017-07-11T07:34:26.994Z,995.79
2017-07-11T07:35:27.036Z,995.82
2017-07-11T07:36:27.081Z,995.79
2017-07-11T07:37:27.120Z,995.77
2017-07-11T07:38:27.178Z,995.76
2017-07-11T07:39:27.203Z,995.83
2017-07-11T07:40:27.249Z,995.77
2017-07-11T07:41:27.290Z,995.81
2017-07-11T07:42:27.332Z,995.79
2017-07-11T07:43:27.373Z,995.81
2017-07-11T07:44:27.415Z,995.81
2017-07-11T07:45:27.456Z,995.82
2017-07-11T07:46:27.498Z,995.84
2017-07-11T07:47:27.538Z,995.83
2017-07-11T07:48:27.580Z,995.86
2017-07-11T07:49:27.625Z,995.86
2017-07-11T07:50:27.666Z,995.89
2017-07-11T07:51:27.705Z,995.9
2017-07-11T07:52:27.749Z,995.87
2017-07-11T07:53:27.791Z,995.84
2017-07-11T07:54:27.831Z,995.89
2017-07-11T07:55:27.873Z,995.93
2017-07-11T07:56:27.916Z,995.96
2017-07-11T07:57:27.956Z,995.93
2017-07-11T07:58:28.001Z,995.9
2017-07-11T07:59:28.039Z,995.93
2017-07-11T08:00:28.082Z,995.89
2017-07-11T08:01:28.121Z,995.91
2017-07-11T08:02:28.166Z,995.91
2017-07-11T08:03:28.205Z,995.9
2017-07-11T08:04:28.245Z,995.92
2017-07-11T08:05:28.289Z,995.94
2017-07-11T08:06:28.330Z,995.95
2017-07-11T08:07:28.368Z,995.97
2017-07-11T08:08:28.412Z,995.98
2017-07-11T08:09:28.454Z,996.01
2017-07-11T08:10:28.495Z,995.97
2017-07-11T08:11:28.537Z,995.99
2017-07-11T08:12:28.576Z,995.96
2017-07-11T08:13:28.619Z,995.99
2017-07-11T08:14:28.660Z,996.02
2017-07-11T08:15:28.699Z,995.99
2017-07-11T08:16:28.741Z,996
2017-07-11T08:17:28.781Z,996.01
2017-07-11T08:18:28.823Z,996.01
2017-07-11T08:19:28.879Z,996.02
2017-07-11T08:20:28.906Z,996.05
2017-07-11T08:21:28.948Z,996.04
2017-07-11T08:22:28.992Z,996.07
2017-07-11T08:23:29.033Z,996.08
2017-07-11T08:24:29.072Z,996.08
2017-07-11T08:25:29.113Z,996.08
2017-07-11T08:26:29.157Z,996.06
2017-07-11T08:27:29.196Z,996.12
2017-07-11T08:28:29.238Z,996.08
2017-07-11T08:29:29.280Z,996.12
2017-07-11T08:30:29.320Z,996.13
2017-07-11T08:31:29.364Z,996.12
2017-07-11T08:32:29.404Z,996.19
2017-07-11T08:33:29.444Z,996.16
2017-07-11T08:34:29.485Z,996.13
2017-07-11T08:35:29.527Z,996.16
2017-07-11T08:36:29.569Z,996.21
2017-07-11T08:37:29.615Z,996.18
2017-07-11T08:38:29.653Z,996.19
2017-07-11T08:39:29.691Z,996.21
2017-07-11T08:40:29.737Z,996.25
2017-07-11T08:41:29.778Z,996.22
2017-07-11T08:42:29.817Z,996.22
2017-07-11T08:43:29.858Z,996.22
2017-07-11T08:44:29.899Z,996.25
2017-07-11T08:45:29.943Z,996.27
2017-07-11T08:46:29.982Z,996.23
2017-07-11T08:47:30.026Z,996.25
2017-07-11T08:48:30.066Z,996.24
2017-07-11T08:49:30.107Z,996.24
2017-07-11T08:50:30.151Z,996.27
2017-07-11T08:51:30.190Z,996.28
2017-07-11T08:52:30.235Z,996.27
2017-07-11T08:53:30.275Z,996.25
2017-07-11T08:54:30.315Z,996.23
2017-07-11T08:55:30.355Z,996.29
2017-07-11T08:56:30.399Z,996.29
2017-07-11T08:57:30.440Z,996.28
2017-07-11T08:58:30.480Z,996.3
2017-07-11T08:59:30.524Z,996.27
2017-07-11T09:00:30.566Z,996.33
2017-07-11T09:01:30.605Z,996.35
2017-07-11T09:02:30.648Z,996.32
2017-07-11T09:03:30.689Z,996.33
2017-07-11T09:04:30.731Z,996.32
2017-07-11T09:05:30.769Z,996.31
2017-07-11T09:06:30.812Z,996.36
2017-07-11T09:07:30.857Z,996.37
2017-07-11T09:08:30.897Z,996.37
2017-07-11T09:09:30.939Z,996.37
2017-07-11T09:10:30.980Z,996.39
2017-07-11T09:11:31.022Z,996.42
2017-07-11T09:12:31.064Z,996.42
2017-07-11T09:13:31.104Z,996.41
2017-07-11T09:14:31.174Z,996.4
2017-07-11T09:15:31.188Z,996.41
2017-07-11T09:16:31.232Z,996.43
2017-07-11T09:17:31.272Z,996.44
2017-07-11T09:18:31.314Z,996.4
2017-07-11T09:19:31.358Z,996.46
2017-07-11T09:20:31.402Z,996.49
2017-07-11T09:21:31.440Z,996.45
2017-07-11T09:22:31.491Z,996.45
2017-07-11T09:23:31.524Z,996.47
2017-07-11T09:24:31.570Z,996.48
2017-07-11T09:25:31.610Z,996.48
2017-07-11T09:26:31.656Z,996.5
2017-07-11T09:27:31.696Z,996.48
2017-07-11T09:28:31.740Z,996.51
2017-07-11T09:29:31.782Z,996.54
2017-07-11T09:30:31.823Z,996.53
2017-07-11T09:31:31.865Z,996.53
2017-07-11T09:32:31.911Z,996.56
2017-07-11T09:33:31.951Z,996.56
2017-07-11T09:34:31.992Z,996.58
2017-07-11T09:35:32.036Z,996.56
2017-07-11T09:36:32.078Z,996.59
2017-07-11T09:37:32.124Z,996.57
2017-07-11T09:38:32.166Z,996.59
2017-07-11T09:39:32.207Z,996.6
2017-07-11T09:40:32.254Z,996.61
2017-07-11T09:41:32.293Z,996.61
2017-07-11T09:42:32.334Z,996.64
2017-07-11T09:43:32.377Z,996.56
2017-07-11T09:44:32.419Z,996.64
2017-07-11T09:45:32.462Z,996.68
2017-07-11T09:46:32.505Z,996.66
2017-07-11T09:47:32.548Z,996.71
2017-07-11T09:48:32.593Z,996.7
2017-07-11T09:49:32.635Z,996.69
2017-07-11T09:50:32.677Z,996.68
2017-07-11T09:51:32.718Z,996.7
2017-07-11T09:52:32.760Z,996.72
2017-07-11T09:53:32.806Z,996.7
2017-07-11T09:54:32.847Z,996.72
2017-07-11T09:55:32.889Z,996.71
2017-07-11T09:56:32.935Z,996.73
2017-07-11T09:57:32.977Z,996.72
2017-07-11T09:58:33.020Z,996.72
2017-07-11T09:59:33.064Z,996.74
2017-07-11T10:00:33.104Z,996.75
2017-07-11T10:01:33.149Z,996.72
2017-07-11T10:02:33.192Z,996.76
2017-07-11T10:03:33.233Z,996.74
2017-07-11T10:04:33.277Z,996.76
2017-07-11T10:05:33.325Z,996.78
2017-07-11T10:06:33.366Z,996.73
2017-07-11T10:07:33.410Z,996.75
2017-07-11T10:08:33.452Z,996.78
2017-07-11T10:09:33.498Z,996.74
2017-07-11T10:10:33.539Z,996.75
2017-07-11T10:11:33.585Z,996.74
2017-07-11T10:12:33.626Z,996.7
2017-07-11T10:13:33.673Z,996.69
2017-07-11T10:14:33.715Z,996.7
2017-07-11T10:15:33.758Z,996.67
2017-07-11T10:16:33.805Z,996.68
2017-07-11T10:17:33.850Z,996.72
2017-07-11T10:18:33.894Z,996.75
2017-07-11T10:19:33.937Z,996.73
2017-07-11T10:20:33.980Z,996.82
2017-07-11T10:21:34.026Z,996.74
2017-07-11T10:22:34.073Z,996.75
2017-07-11T10:23:34.116Z,996.83
2017-07-11T10:24:34.168Z,996.77
2017-07-11T10:25:34.207Z,996.78
2017-07-11T10:26:34.259Z,996.75
2017-07-11T10:27:34.301Z,996.83
2017-07-11T10:28:34.349Z,996.69
2017-07-11T10:29:34.398Z,996.73
2017-07-11T10:30:34.442Z,996.66
2017-07-11T10:31:34.492Z,996.85
2017-07-11T10:32:34.537Z,996.7
2017-07-11T10:33:34.584Z,996.79
2017-07-11T10:34:34.634Z,996.7
2017-07-11T10:35:34.685Z,996.82
2017-07-11T10:36:34.733Z,996.72
2017-07-11T10:37:34.778Z,996.69
2017-07-11T10:38:34.830Z,996.67
2017-07-11T10:39:34.880Z,996.69
2017-07-11T10:40:34.928Z,996.66
2017-07-11T10:41:34.975Z,996.91
2017-07-11T10:42:35.024Z,996.87
2017-07-11T10:43:35.074Z,996.87
2017-07-11T10:44:35.125Z,996.8
2017-07-11T10:45:35.173Z,996.87
2017-07-11T10:46:35.226Z,996.82
2017-07-11T10:47:35.274Z,996.83
2017-07-11T10:48:35.330Z,996.87
2017-07-11T10:49:35.381Z,996.68
2017-07-11T10:50:35.434Z,996.82
2017-07-11T10:51:35.485Z,996.82
2017-07-11T10:52:35.538Z,996.75
2017-07-11T10:53:35.591Z,996.82
2017-07-11T10:54:35.640Z,996.74
2017-07-11T10:55:35.696Z,996.62
2017-07-11T10:56:35.747Z,996.63
2017-07-11T10:57:35.802Z,996.69
2017-07-11T10:58:35.851Z,996.68
2017-07-11T10:59:35.903Z,996.65
2017-07-11T11:00:35.957Z,996.81
2017-07-11T11:01:36.007Z,996.87
2017-07-11T11:02:36.058Z,996.88
2017-07-11T11:03:36.108Z,996.86
2017-07-11T11:04:36.162Z,996.66
2017-07-11T11:05:36.213Z,996.58
2017-07-11T11:06:36.264Z,996.65
2017-07-11T11:07:36.316Z,996.71
2017-07-11T11:08:36.367Z,996.69
2017-07-11T11:09:36.414Z,996.69
2017-07-11T11:10:36.466Z,996.86
2017-07-11T11:11:36.517Z,996.93
2017-07-11T11:12:36.567Z,996.82
2017-07-11T11:13:36.614Z,996.79
2017-07-11T11:14:36.665Z,996.62
2017-07-11T11:15:36.715Z,996.67
2017-07-11T11:16:36.763Z,996.65
2017-07-11T11:17:36.813Z,996.63
2017-07-11T11:18:36.862Z,996.63
2017-07-11T11:19:36.909Z,996.66
2017-07-11T11:20:36.962Z,996.65
2017-07-11T11:21:37.005Z,996.61
2017-07-11T11:22:37.052Z,996.65
2017-07-11T11:23:37.099Z,996.7
2017-07-11T11:24:37.146Z,996.66
2017-07-11T11:25:37.196Z,996.63
2017-07-11T11:26:37.242Z,996.65
2017-07-11T11:27:37.287Z,996.58
2017-07-11T11:28:37.337Z,996.6
2017-07-11T11:29:37.381Z,996.57
2017-07-11T11:30:37.429Z,996.59
2017-07-11T11:31:37.473Z,996.64
2017-07-11T11:32:37.523Z,996.63
2017-07-11T11:33:37.566Z,996.64
2017-07-11T11:34:37.615Z,996.66
2017-07-11T11:35:37.710Z,996.64
2017-07-11T11:36:37.708Z,996.68
2017-07-11T11:37:37.751Z,996.67
2017-07-11T11:38:37.795Z,996.61
2017-07-11T11:39:37.841Z,996.6
2017-07-11T11:40:37.888Z,996.63
2017-07-11T11:41:37.946Z,996.61
2017-07-11T11:42:37.980Z,996.67
2017-07-11T11:43:38.023Z,996.59
2017-07-11T11:44:38.071Z,996.64
2017-07-11T11:45:38.114Z,996.6
2017-07-11T11:46:38.217Z,996.59
2017-07-11T11:47:38.208Z,996.57
2017-07-11T11:48:38.250Z,996.64
2017-07-11T11:49:38.295Z,996.6
2017-07-11T11:50:38.343Z,996.51
2017-07-11T11:51:38.388Z,996.58
2017-07-11T11:52:38.434Z,996.62
2017-07-11T11:53:38.478Z,996.56
2017-07-11T11:54:38.523Z,996.58
2017-07-11T11:55:38.566Z,996.54
2017-07-11T11:56:38.614Z,996.53
2017-07-11T11:57:38.661Z,996.55
2017-07-11T11:58:38.703Z,996.6
2017-07-11T11:59:38.751Z,996.61
2017-07-11T12:00:38.796Z,996.6
2017-07-11T12:01:38.841Z,996.58
2017-07-11T12:02:38.884Z,996.56
2017-07-11T12:03:38.930Z,996.54
2017-07-11T12:04:38.975Z,996.54
2017-07-11T12:05:39.022Z,996.48
2017-07-11T12:06:39.069Z,996.46
2017-07-11T12:07:39.108Z,996.46
2017-07-11T12:08:39.154Z,996.45
2017-07-11T12:09:39.199Z,996.45
2017-07-11T12:10:39.247Z,996.41
2017-07-11T12:11:39.291Z,996.39
2017-07-11T12:12:39.333Z,996.42
2017-07-11T12:13:39.379Z,996.43
2017-07-11T12:14:39.424Z,996.46
2017-07-11T12:15:39.468Z,996.43
2017-07-11T12:16:39.516Z,996.47
2017-07-11T12:17:39.559Z,996.45
2017-07-11T12:18:39.605Z,996.46
2017-07-11T12:19:39.648Z,996.39
2017-07-11T12:20:39.693Z,996.4
2017-07-11T12:21:39.739Z,996.38
2017-07-11T12:22:39.783Z,996.29
2017-07-11T12:23:39.828Z,996.29
2017-07-11T12:24:39.874Z,996.27
2017-07-11T12:25:39.915Z,996.29
2017-07-11T12:26:39.961Z,996.29
2017-07-11T12:27:40.006Z,996.22
2017-07-11T12:28:40.050Z,996.27
2017-07-11T12:29:40.095Z,996.26
2017-07-11T12:30:40.138Z,996.28